sensor_id;sensor_type;location;lat;lon;timestamp;temperature;humidity
52471;DHT22;38382;53.160;7.026;2023-05-07T00:01:45;10.70;99.90
52471;DHT22;38382;53.160;7.026;2023-05-07T00:04:11;10.70;99.90
52471;DHT22;38382;53.160;7.026;2023-05-07T00:06:38;10.60;99.90
52471;DHT22;38382;53.160;7.026;2023-05-07T00:09:05;10.70;99.90
52471;DHT22;38382;53.160;7.026;2023-05-07T00:11:31;10.60;99.90
52471;DHT22;38382;53.160;7.026;2023-05-07T00:13:57;10.70;99.90
52471;DHT22;38382;53.160;7.026;2023-05-07T00:16:23;10.70;99.90
52471;DHT22;38382;53.160;7.026;2023-05-07T00:18:48;10.70;99.90
52471;DHT22;38382;53.160;7.026;2023-05-07T00:21:14;10.70;99.90
52471;DHT22;38382;53.160;7.026;2023-05-07T00:23:40;10.70;99.90
52471;DHT22;38382;53.160;7.026;2023-05-07T00:26:06;10.70;99.90
52471;DHT22;38382;53.160;7.026;2023-05-07T00:28:31;10.80;99.90
52471;DHT22;38382;53.160;7.026;2023-05-07T00:30:57;10.80;99.90
52471;DHT22;38382;53.160;7.026;2023-05-07T00:33:23;10.80;99.90
52471;DHT22;38382;53.160;7.026;2023-05-07T00:35:49;10.80;99.90
52471;DHT22;38382;53.160;7.026;2023-05-07T00:38:15;10.80;99.90
52471;DHT22;38382;53.160;7.026;2023-05-07T00:40:40;10.80;99.90
52471;DHT22;38382;53.160;7.026;2023-05-07T00:43:06;10.90;99.90
52471;DHT22;38382;53.160;7.026;2023-05-07T00:45:32;10.90;99.90
52471;DHT22;38382;53.160;7.026;2023-05-07T00:48:00;10.90;99.90
52471;DHT22;38382;53.160;7.026;2023-05-07T00:50:27;10.90;99.90
52471;DHT22;38382;53.160;7.026;2023-05-07T00:52:53;10.90;99.90
52471;DHT22;38382;53.160;7.026;2023-05-07T00:55:21;10.90;99.90
52471;DHT22;38382;53.160;7.026;2023-05-07T00:57:47;10.90;99.90
52471;DHT22;38382;53.160;7.026;2023-05-07T01:00:13;11.00;99.90
52471;DHT22;38382;53.160;7.026;2023-05-07T01:02:39;10.90;99.90
52471;DHT22;38382;53.160;7.026;2023-05-07T01:05:07;10.90;99.90
52471;DHT22;38382;53.160;7.026;2023-05-07T01:07:35;10.90;99.90
52471;DHT22;38382;53.160;7.026;2023-05-07T01:10:03;10.90;99.90
52471;DHT22;38382;53.160;7.026;2023-05-07T01:12:30;10.90;99.90
52471;DHT22;38382;53.160;7.026;2023-05-07T01:14:57;11.00;99.90
52471;DHT22;38382;53.160;7.026;2023-05-07T01:17:23;11.00;99.90
52471;DHT22;38382;53.160;7.026;2023-05-07T01:19:49;11.00;99.90
52471;DHT22;38382;53.160;7.026;2023-05-07T01:22:16;11.00;99.90
52471;DHT22;38382;53.160;7.026;2023-05-07T01:24:45;11.00;99.90
52471;DHT22;38382;53.160;7.026;2023-05-07T01:27:11;11.00;99.90
52471;DHT22;38382;53.160;7.026;2023-05-07T01:29:37;10.90;99.90
52471;DHT22;38382;53.160;7.026;2023-05-07T01:32:03;11.00;99.90
52471;DHT22;38382;53.160;7.026;2023-05-07T01:34:32;11.00;99.90
52471;DHT22;38382;53.160;7.026;2023-05-07T01:36:59;11.00;99.90
52471;DHT22;38382;53.160;7.026;2023-05-07T01:39:26;10.90;99.90
52471;DHT22;38382;53.160;7.026;2023-05-07T01:41:55;10.90;99.90
52471;DHT22;38382;53.160;7.026;2023-05-07T01:44:22;10.90;99.90
52471;DHT22;38382;53.160;7.026;2023-05-07T01:46:48;10.90;99.90
52471;DHT22;38382;53.160;7.026;2023-05-07T01:49:15;10.90;99.90
52471;DHT22;38382;53.160;7.026;2023-05-07T01:51:41;10.90;99.90
52471;DHT22;38382;53.160;7.026;2023-05-07T01:54:07;10.90;99.90
52471;DHT22;38382;53.160;7.026;2023-05-07T01:56:33;10.80;99.90
52471;DHT22;38382;53.160;7.026;2023-05-07T01:58:59;10.80;99.90
52471;DHT22;38382;53.160;7.026;2023-05-07T02:01:25;10.80;99.90
52471;DHT22;38382;53.160;7.026;2023-05-07T02:03:51;10.80;99.90
52471;DHT22;38382;53.160;7.026;2023-05-07T02:06:17;10.80;99.90
52471;DHT22;38382;53.160;7.026;2023-05-07T02:08:43;10.80;99.90
52471;DHT22;38382;53.160;7.026;2023-05-07T02:11:09;10.70;99.90
52471;DHT22;38382;53.160;7.026;2023-05-07T02:14:13;10.90;99.90
52471;DHT22;38382;53.160;7.026;2023-05-07T02:19:12;10.70;99.90
52471;DHT22;38382;53.160;7.026;2023-05-07T02:21:38;12.00;99.90
52471;DHT22;38382;53.160;7.026;2023-05-07T02:24:06;10.70;99.90
52471;DHT22;38382;53.160;7.026;2023-05-07T02:26:32;10.70;99.90
52471;DHT22;38382;53.160;7.026;2023-05-07T02:28:57;10.70;99.90
52471;DHT22;38382;53.160;7.026;2023-05-07T02:31:26;10.70;99.90
52471;DHT22;38382;53.160;7.026;2023-05-07T02:33:58;10.70;99.90
52471;DHT22;38382;53.160;7.026;2023-05-07T02:36:24;11.20;99.90
52471;DHT22;38382;53.160;7.026;2023-05-07T02:38:49;10.70;99.90
52471;DHT22;38382;53.160;7.026;2023-05-07T02:41:15;10.60;99.90
52471;DHT22;38382;53.160;7.026;2023-05-07T02:43:41;10.60;99.90
52471;DHT22;38382;53.160;7.026;2023-05-07T02:46:08;10.50;99.90
52471;DHT22;38382;53.160;7.026;2023-05-07T02:48:35;10.60;99.90
52471;DHT22;38382;53.160;7.026;2023-05-07T02:51:07;10.50;99.90
52471;DHT22;38382;53.160;7.026;2023-05-07T02:53:33;9.30;99.90
52471;DHT22;38382;53.160;7.026;2023-05-07T02:56:00;9.50;99.90
52471;DHT22;38382;53.160;7.026;2023-05-07T02:58:26;10.60;99.90
52471;DHT22;38382;53.160;7.026;2023-05-07T08:14:54;11.90;99.90
52471;DHT22;38382;53.160;7.026;2023-05-07T08:17:20;12.80;99.90
52471;DHT22;38382;53.160;7.026;2023-05-07T08:23:05;13.40;99.90
52471;DHT22;38382;53.160;7.026;2023-05-07T08:25:35;13.20;99.90
52471;DHT22;38382;53.160;7.026;2023-05-07T08:28:01;13.20;99.90
52471;DHT22;38382;53.160;7.026;2023-05-07T08:30:28;13.30;99.90
52471;DHT22;38382;53.160;7.026;2023-05-07T08:32:54;13.30;99.90
52471;DHT22;38382;53.160;7.026;2023-05-07T08:35:20;13.40;99.90
52471;DHT22;38382;53.160;7.026;2023-05-07T08:37:46;13.50;99.90
52471;DHT22;38382;53.160;7.026;2023-05-07T08:40:12;13.70;99.90
52471;DHT22;38382;53.160;7.026;2023-05-07T08:42:38;13.80;99.90
52471;DHT22;38382;53.160;7.026;2023-05-07T08:45:09;13.90;99.90
52471;DHT22;38382;53.160;7.026;2023-05-07T08:47:42;13.90;99.90
52471;DHT22;38382;53.160;7.026;2023-05-07T08:50:11;13.80;99.90
52471;DHT22;38382;53.160;7.026;2023-05-07T08:52:37;13.70;99.90
52471;DHT22;38382;53.160;7.026;2023-05-07T08:55:03;13.70;99.90
52471;DHT22;38382;53.160;7.026;2023-05-07T08:57:29;13.70;99.90
52471;DHT22;38382;53.160;7.026;2023-05-07T08:59:55;13.70;99.90
52471;DHT22;38382;53.160;7.026;2023-05-07T09:02:21;13.70;99.90
52471;DHT22;38382;53.160;7.026;2023-05-07T09:04:46;13.80;99.90
52471;DHT22;38382;53.160;7.026;2023-05-07T09:07:12;13.90;99.90
52471;DHT22;38382;53.160;7.026;2023-05-07T09:09:38;14.10;99.90
52471;DHT22;38382;53.160;7.026;2023-05-07T09:12:04;14.30;99.90
52471;DHT22;38382;53.160;7.026;2023-05-07T09:14:30;14.50;99.90
52471;DHT22;38382;53.160;7.026;2023-05-07T09:16:56;14.60;99.90
52471;DHT22;38382;53.160;7.026;2023-05-07T09:19:26;14.80;99.90
52471;DHT22;38382;53.160;7.026;2023-05-07T09:21:59;15.00;99.90
52471;DHT22;38382;53.160;7.026;2023-05-07T09:24:25;15.00;99.90
52471;DHT22;38382;53.160;7.026;2023-05-07T09:26:51;15.00;99.90
52471;DHT22;38382;53.160;7.026;2023-05-07T09:29:17;15.00;99.90
52471;DHT22;38382;53.160;7.026;2023-05-07T09:31:43;15.10;99.90
52471;DHT22;38382;53.160;7.026;2023-05-07T09:34:09;15.10;99.90
52471;DHT22;38382;53.160;7.026;2023-05-07T09:36:35;15.20;99.90
52471;DHT22;38382;53.160;7.026;2023-05-07T09:39:01;15.30;99.90
52471;DHT22;38382;53.160;7.026;2023-05-07T09:41:27;15.30;99.90
52471;DHT22;38382;53.160;7.026;2023-05-07T09:43:56;15.50;99.90
52471;DHT22;38382;53.160;7.026;2023-05-07T09:46:27;15.60;99.90
52471;DHT22;38382;53.160;7.026;2023-05-07T09:48:56;15.60;99.90
52471;DHT22;38382;53.160;7.026;2023-05-07T09:51:40;15.60;99.90
52471;DHT22;38382;53.160;7.026;2023-05-07T09:54:07;15.70;99.90
52471;DHT22;38382;53.160;7.026;2023-05-07T09:56:33;15.80;99.90
52471;DHT22;38382;53.160;7.026;2023-05-07T09:59:00;16.10;99.90
52471;DHT22;38382;53.160;7.026;2023-05-07T10:01:27;16.50;99.90
52471;DHT22;38382;53.160;7.026;2023-05-07T10:03:53;16.80;99.90
52471;DHT22;38382;53.160;7.026;2023-05-07T10:06:20;16.90;99.90
52471;DHT22;38382;53.160;7.026;2023-05-07T10:08:46;17.10;99.90
52471;DHT22;38382;53.160;7.026;2023-05-07T10:11:13;17.30;99.90
52471;DHT22;38382;53.160;7.026;2023-05-07T10:13:41;17.60;99.90
52471;DHT22;38382;53.160;7.026;2023-05-07T10:16:08;18.00;99.90
52471;DHT22;38382;53.160;7.026;2023-05-07T10:18:34;18.40;99.90
52471;DHT22;38382;53.160;7.026;2023-05-07T10:22:04;18.40;99.90
52471;DHT22;38382;53.160;7.026;2023-05-07T10:24:07;18.40;99.90
52471;DHT22;38382;53.160;7.026;2023-05-07T10:26:40;18.30;99.90
52471;DHT22;38382;53.160;7.026;2023-05-07T10:29:18;18.30;99.90
52471;DHT22;38382;53.160;7.026;2023-05-07T10:32:19;18.30;99.90
52471;DHT22;38382;53.160;7.026;2023-05-07T10:34:50;18.60;99.90
52471;DHT22;38382;53.160;7.026;2023-05-07T10:37:18;18.80;99.90
52471;DHT22;38382;53.160;7.026;2023-05-07T10:39:45;18.90;99.90
52471;DHT22;38382;53.160;7.026;2023-05-07T10:42:12;18.80;99.90
52471;DHT22;38382;53.160;7.026;2023-05-07T10:44:38;19.00;99.90
52471;DHT22;38382;53.160;7.026;2023-05-07T10:47:09;19.10;99.90
52471;DHT22;38382;53.160;7.026;2023-05-07T10:49:36;19.20;99.90
52471;DHT22;38382;53.160;7.026;2023-05-07T10:52:21;19.30;99.90
52471;DHT22;38382;53.160;7.026;2023-05-07T10:54:47;19.30;99.90
52471;DHT22;38382;53.160;7.026;2023-05-07T10:59:57;19.20;99.90
52471;DHT22;38382;53.160;7.026;2023-05-07T11:02:22;19.10;99.90
52471;DHT22;38382;53.160;7.026;2023-05-07T11:05:20;19.20;99.90
52471;DHT22;38382;53.160;7.026;2023-05-07T11:07:56;19.10;99.90
52471;DHT22;38382;53.160;7.026;2023-05-07T11:10:22;18.90;99.90
52471;DHT22;38382;53.160;7.026;2023-05-07T11:12:49;19.00;99.90
52471;DHT22;38382;53.160;7.026;2023-05-07T11:15:32;19.20;99.90
52471;DHT22;38382;53.160;7.026;2023-05-07T11:17:59;19.40;99.90
52471;DHT22;38382;53.160;7.026;2023-05-07T11:20:45;19.40;99.90
52471;DHT22;38382;53.160;7.026;2023-05-07T11:26:13;20.20;99.90
52471;DHT22;38382;53.160;7.026;2023-05-07T11:28:42;20.40;99.90
52471;DHT22;38382;53.160;7.026;2023-05-07T11:31:08;20.20;99.90
52471;DHT22;38382;53.160;7.026;2023-05-07T11:33:35;20.00;99.90
52471;DHT22;38382;53.160;7.026;2023-05-07T11:36:05;20.00;99.90
52471;DHT22;38382;53.160;7.026;2023-05-07T11:38:34;20.10;99.90
52471;DHT22;38382;53.160;7.026;2023-05-07T11:41:00;19.90;99.90
52471;DHT22;38382;53.160;7.026;2023-05-07T11:43:27;20.00;99.90
52471;DHT22;38382;53.160;7.026;2023-05-07T11:45:53;20.00;99.90
52471;DHT22;38382;53.160;7.026;2023-05-07T11:48:21;20.20;99.90
52471;DHT22;38382;53.160;7.026;2023-05-07T11:50:51;20.20;99.90
52471;DHT22;38382;53.160;7.026;2023-05-07T11:53:24;20.10;99.90
52471;DHT22;38382;53.160;7.026;2023-05-07T11:55:55;20.30;99.90
52471;DHT22;38382;53.160;7.026;2023-05-07T11:58:23;20.30;99.90
52471;DHT22;38382;53.160;7.026;2023-05-07T12:00:53;20.40;99.90
52471;DHT22;38382;53.160;7.026;2023-05-07T12:03:19;20.60;99.90
52471;DHT22;38382;53.160;7.026;2023-05-07T12:05:46;20.90;99.90
52471;DHT22;38382;53.160;7.026;2023-05-07T12:08:19;21.20;99.90
52471;DHT22;38382;53.160;7.026;2023-05-07T12:10:47;21.20;99.90
52471;DHT22;38382;53.160;7.026;2023-05-07T12:13:24;21.40;99.90
52471;DHT22;38382;53.160;7.026;2023-05-07T12:15:55;21.50;99.90
52471;DHT22;38382;53.160;7.026;2023-05-07T12:18:27;21.80;99.90
52471;DHT22;38382;53.160;7.026;2023-05-07T12:20:59;22.00;99.90
52471;DHT22;38382;53.160;7.026;2023-05-07T12:23:25;22.00;99.90
52471;DHT22;38382;53.160;7.026;2023-05-07T12:25:51;22.40;99.90
52471;DHT22;38382;53.160;7.026;2023-05-07T12:28:18;22.70;99.90
52471;DHT22;38382;53.160;7.026;2023-05-07T12:30:47;22.80;99.90
52471;DHT22;38382;53.160;7.026;2023-05-07T12:33:24;22.80;99.90
52471;DHT22;38382;53.160;7.026;2023-05-07T12:36:11;23.10;99.90
52471;DHT22;38382;53.160;7.026;2023-05-07T12:39:15;23.40;99.90
52471;DHT22;38382;53.160;7.026;2023-05-07T12:45:22;23.20;99.90
52471;DHT22;38382;53.160;7.026;2023-05-07T12:47:48;23.50;99.90
52471;DHT22;38382;53.160;7.026;2023-05-07T12:50:15;23.70;99.90
52471;DHT22;38382;53.160;7.026;2023-05-07T12:52:41;23.80;99.90
52471;DHT22;38382;53.160;7.026;2023-05-07T12:55:08;24.20;99.90
52471;DHT22;38382;53.160;7.026;2023-05-07T12:57:48;24.30;99.90
52471;DHT22;38382;53.160;7.026;2023-05-07T13:00:14;24.40;99.90
52471;DHT22;38382;53.160;7.026;2023-05-07T13:02:42;24.40;99.90
52471;DHT22;38382;53.160;7.026;2023-05-07T13:05:10;24.70;99.90
52471;DHT22;38382;53.160;7.026;2023-05-07T13:07:36;24.80;99.30
52471;DHT22;38382;53.160;7.026;2023-05-07T13:10:03;24.60;99.90
52471;DHT22;38382;53.160;7.026;2023-05-07T13:12:29;24.60;99.90
52471;DHT22;38382;53.160;7.026;2023-05-07T13:14:55;25.10;99.90
52471;DHT22;38382;53.160;7.026;2023-05-07T13:17:21;25.10;99.90
52471;DHT22;38382;53.160;7.026;2023-05-07T13:19:47;25.20;97.10
52471;DHT22;38382;53.160;7.026;2023-05-07T13:22:12;25.50;99.90
52471;DHT22;38382;53.160;7.026;2023-05-07T13:24:38;25.80;99.40
52471;DHT22;38382;53.160;7.026;2023-05-07T13:27:07;25.90;95.60
52471;DHT22;38382;53.160;7.026;2023-05-07T13:29:32;26.20;99.00
52471;DHT22;38382;53.160;7.026;2023-05-07T13:31:58;26.50;95.60
52471;DHT22;38382;53.160;7.026;2023-05-07T13:34:24;26.60;91.50
52471;DHT22;38382;53.160;7.026;2023-05-07T13:36:50;26.70;94.70
52471;DHT22;38382;53.160;7.026;2023-05-07T13:39:16;27.20;91.60
52471;DHT22;38382;53.160;7.026;2023-05-07T13:41:42;27.40;87.30
52471;DHT22;38382;53.160;7.026;2023-05-07T13:44:07;27.40;86.50
52471;DHT22;38382;53.160;7.026;2023-05-07T13:46:33;27.20;88.40
52471;DHT22;38382;53.160;7.026;2023-05-07T13:48:59;27.20;89.30
52471;DHT22;38382;53.160;7.026;2023-05-07T13:51:25;27.20;88.50
52471;DHT22;38382;53.160;7.026;2023-05-07T13:53:51;27.00;91.10
52471;DHT22;38382;53.160;7.026;2023-05-07T13:56:18;27.10;90.70
52471;DHT22;38382;53.160;7.026;2023-05-07T13:58:43;27.30;90.50
52471;DHT22;38382;53.160;7.026;2023-05-07T14:01:09;27.10;91.80
52471;DHT22;38382;53.160;7.026;2023-05-07T14:03:35;27.30;87.60
52471;DHT22;38382;53.160;7.026;2023-05-07T14:06:03;26.80;84.60
52471;DHT22;38382;53.160;7.026;2023-05-07T14:08:29;26.60;90.70
52471;DHT22;38382;53.160;7.026;2023-05-07T14:10:55;26.00;89.00
52471;DHT22;38382;53.160;7.026;2023-05-07T14:13:26;25.90;98.50
52471;DHT22;38382;53.160;7.026;2023-05-07T14:15:52;25.90;95.30
52471;DHT22;38382;53.160;7.026;2023-05-07T14:18:18;25.90;97.10
52471;DHT22;38382;53.160;7.026;2023-05-07T14:20:44;25.90;97.20
52471;DHT22;38382;53.160;7.026;2023-05-07T14:23:12;25.80;99.40
52471;DHT22;38382;53.160;7.026;2023-05-07T14:25:37;25.60;94.30
52471;DHT22;38382;53.160;7.026;2023-05-07T14:28:03;25.50;95.40
52471;DHT22;38382;53.160;7.026;2023-05-07T14:30:29;25.80;98.70
52471;DHT22;38382;53.160;7.026;2023-05-07T14:32:55;26.00;95.90
52471;DHT22;38382;53.160;7.026;2023-05-07T14:35:20;26.30;92.70
52471;DHT22;38382;53.160;7.026;2023-05-07T14:37:46;26.40;91.90
52471;DHT22;38382;53.160;7.026;2023-05-07T14:40:12;26.30;90.60
52471;DHT22;38382;53.160;7.026;2023-05-07T14:42:38;26.50;93.50
52471;DHT22;38382;53.160;7.026;2023-05-07T14:45:04;26.80;96.30
52471;DHT22;38382;53.160;7.026;2023-05-07T14:47:30;26.90;92.00
52471;DHT22;38382;53.160;7.026;2023-05-07T14:49:55;26.80;89.00
52471;DHT22;38382;53.160;7.026;2023-05-07T14:52:22;26.90;92.20
52471;DHT22;38382;53.160;7.026;2023-05-07T14:54:48;27.00;89.30
52471;DHT22;38382;53.160;7.026;2023-05-07T14:57:14;27.10;90.00
52471;DHT22;38382;53.160;7.026;2023-05-07T14:59:44;27.40;91.60
52471;DHT22;38382;53.160;7.026;2023-05-07T15:02:11;27.40;89.00
52471;DHT22;38382;53.160;7.026;2023-05-07T15:04:37;27.40;81.00
52471;DHT22;38382;53.160;7.026;2023-05-07T15:07:14;27.70;90.70
52471;DHT22;38382;53.160;7.026;2023-05-07T15:09:44;27.80;78.60
52471;DHT22;38382;53.160;7.026;2023-05-07T15:12:10;28.30;90.20
52471;DHT22;38382;53.160;7.026;2023-05-07T15:14:38;28.40;85.10
52471;DHT22;38382;53.160;7.026;2023-05-07T15:17:04;28.40;75.50
52471;DHT22;38382;53.160;7.026;2023-05-07T15:19:29;28.30;77.20
52471;DHT22;38382;53.160;7.026;2023-05-07T15:21:57;28.70;77.40
52471;DHT22;38382;53.160;7.026;2023-05-07T15:24:23;29.20;77.50
52471;DHT22;38382;53.160;7.026;2023-05-07T15:26:51;29.40;73.90
52471;DHT22;38382;53.160;7.026;2023-05-07T15:29:17;29.40;71.50
52471;DHT22;38382;53.160;7.026;2023-05-07T15:31:43;29.40;71.00
52471;DHT22;38382;53.160;7.026;2023-05-07T15:34:09;29.50;71.10
52471;DHT22;38382;53.160;7.026;2023-05-07T15:36:35;29.50;73.20
52471;DHT22;38382;53.160;7.026;2023-05-07T15:39:01;29.00;72.10
52471;DHT22;38382;53.160;7.026;2023-05-07T15:41:28;28.30;72.20
52471;DHT22;38382;53.160;7.026;2023-05-07T15:43:54;27.60;72.30
52471;DHT22;38382;53.160;7.026;2023-05-07T15:46:21;27.10;76.90
52471;DHT22;38382;53.160;7.026;2023-05-07T15:48:48;26.80;75.50
52471;DHT22;38382;53.160;7.026;2023-05-07T15:51:15;27.10;80.80
52471;DHT22;38382;53.160;7.026;2023-05-07T15:53:40;27.30;80.10
52471;DHT22;38382;53.160;7.026;2023-05-07T15:56:07;27.50;79.40
52471;DHT22;38382;53.160;7.026;2023-05-07T15:58:33;27.20;79.70
52471;DHT22;38382;53.160;7.026;2023-05-07T16:00:59;26.60;82.30
52471;DHT22;38382;53.160;7.026;2023-05-07T16:03:26;26.10;86.40
52471;DHT22;38382;53.160;7.026;2023-05-07T16:05:53;25.70;84.30
52471;DHT22;38382;53.160;7.026;2023-05-07T16:08:19;25.10;87.70
52471;DHT22;38382;53.160;7.026;2023-05-07T16:10:45;24.80;94.90
52471;DHT22;38382;53.160;7.026;2023-05-07T16:13:11;24.70;98.90
52471;DHT22;38382;53.160;7.026;2023-05-07T16:15:36;24.50;96.30
52471;DHT22;38382;53.160;7.026;2023-05-07T16:18:03;24.80;96.50
52471;DHT22;38382;53.160;7.026;2023-05-07T16:20:29;24.80;97.60
52471;DHT22;38382;53.160;7.026;2023-05-07T16:22:55;24.80;96.70
52471;DHT22;38382;53.160;7.026;2023-05-07T16:25:21;24.70;95.40
52471;DHT22;38382;53.160;7.026;2023-05-07T16:27:47;24.50;95.50
52471;DHT22;38382;53.160;7.026;2023-05-07T16:30:13;24.20;97.60
52471;DHT22;38382;53.160;7.026;2023-05-07T16:32:38;23.90;97.30
52471;DHT22;38382;53.160;7.026;2023-05-07T16:35:05;23.40;97.80
52471;DHT22;38382;53.160;7.026;2023-05-07T16:37:32;23.30;99.90
52471;DHT22;38382;53.160;7.026;2023-05-07T16:40:02;23.20;99.90
52471;DHT22;38382;53.160;7.026;2023-05-07T16:42:35;23.00;99.90
52471;DHT22;38382;53.160;7.026;2023-05-07T16:45:02;22.80;99.90
52471;DHT22;38382;53.160;7.026;2023-05-07T16:47:29;22.50;99.90
52471;DHT22;38382;53.160;7.026;2023-05-07T16:49:55;22.50;99.90
52471;DHT22;38382;53.160;7.026;2023-05-07T16:52:21;22.30;99.90
52471;DHT22;38382;53.160;7.026;2023-05-07T16:54:46;22.00;99.90
52471;DHT22;38382;53.160;7.026;2023-05-07T16:57:12;21.70;99.90
52471;DHT22;38382;53.160;7.026;2023-05-07T16:59:38;21.50;99.90
52471;DHT22;38382;53.160;7.026;2023-05-07T17:02:04;21.30;99.90
52471;DHT22;38382;53.160;7.026;2023-05-07T17:04:30;21.20;99.90
52471;DHT22;38382;53.160;7.026;2023-05-07T17:06:57;20.90;99.90
52471;DHT22;38382;53.160;7.026;2023-05-07T17:09:23;20.80;99.90
52471;DHT22;38382;53.160;7.026;2023-05-07T17:11:49;20.60;99.90
52471;DHT22;38382;53.160;7.026;2023-05-07T17:14:15;20.30;99.90
52471;DHT22;38382;53.160;7.026;2023-05-07T17:16:41;20.20;99.90
52471;DHT22;38382;53.160;7.026;2023-05-07T17:19:07;20.10;99.90
52471;DHT22;38382;53.160;7.026;2023-05-07T17:21:33;19.70;99.90
52471;DHT22;38382;53.160;7.026;2023-05-07T17:23:58;19.60;99.90
52471;DHT22;38382;53.160;7.026;2023-05-07T17:26:24;19.40;99.90
52471;DHT22;38382;53.160;7.026;2023-05-07T17:28:50;19.40;99.90
52471;DHT22;38382;53.160;7.026;2023-05-07T17:31:16;19.30;99.90
52471;DHT22;38382;53.160;7.026;2023-05-07T17:33:41;19.00;99.90
52471;DHT22;38382;53.160;7.026;2023-05-07T17:36:07;19.00;99.90
52471;DHT22;38382;53.160;7.026;2023-05-07T17:38:33;18.90;99.90
52471;DHT22;38382;53.160;7.026;2023-05-07T17:40:59;18.90;99.90
52471;DHT22;38382;53.160;7.026;2023-05-07T17:43:26;18.70;99.90
52471;DHT22;38382;53.160;7.026;2023-05-07T17:45:52;18.50;99.90
52471;DHT22;38382;53.160;7.026;2023-05-07T17:48:18;18.50;99.90
52471;DHT22;38382;53.160;7.026;2023-05-07T17:50:44;18.50;99.90
52471;DHT22;38382;53.160;7.026;2023-05-07T17:53:10;18.40;99.90
52471;DHT22;38382;53.160;7.026;2023-05-07T17:55:43;18.30;99.90
52471;DHT22;38382;53.160;7.026;2023-05-07T17:58:10;18.20;99.90
52471;DHT22;38382;53.160;7.026;2023-05-07T18:00:36;18.10;99.90
52471;DHT22;38382;53.160;7.026;2023-05-07T18:03:03;18.10;99.90
52471;DHT22;38382;53.160;7.026;2023-05-07T18:05:29;18.00;99.90
52471;DHT22;38382;53.160;7.026;2023-05-07T18:07:55;18.00;99.90
52471;DHT22;38382;53.160;7.026;2023-05-07T18:10:24;17.90;99.90
52471;DHT22;38382;53.160;7.026;2023-05-07T18:12:50;17.80;99.90
52471;DHT22;38382;53.160;7.026;2023-05-07T18:15:15;17.70;99.90
52471;DHT22;38382;53.160;7.026;2023-05-07T18:17:41;17.50;99.90
52471;DHT22;38382;53.160;7.026;2023-05-07T18:20:07;17.40;99.90
52471;DHT22;38382;53.160;7.026;2023-05-07T18:22:36;17.30;99.90
52471;DHT22;38382;53.160;7.026;2023-05-07T18:25:02;17.10;99.90
52471;DHT22;38382;53.160;7.026;2023-05-07T18:27:28;17.10;99.90
52471;DHT22;38382;53.160;7.026;2023-05-07T18:29:54;17.00;99.90
52471;DHT22;38382;53.160;7.026;2023-05-07T18:32:20;16.70;99.90
52471;DHT22;38382;53.160;7.026;2023-05-07T18:34:48;16.70;99.90
52471;DHT22;38382;53.160;7.026;2023-05-07T18:37:14;16.70;99.90
52471;DHT22;38382;53.160;7.026;2023-05-07T18:39:40;16.60;99.90
52471;DHT22;38382;53.160;7.026;2023-05-07T18:42:08;16.50;99.90
52471;DHT22;38382;53.160;7.026;2023-05-07T18:44:34;16.30;99.90
52471;DHT22;38382;53.160;7.026;2023-05-07T18:47:06;16.30;99.90
52471;DHT22;38382;53.160;7.026;2023-05-07T18:49:32;16.20;99.90
52471;DHT22;38382;53.160;7.026;2023-05-07T18:51:58;16.10;99.90
52471;DHT22;38382;53.160;7.026;2023-05-07T18:54:24;16.00;99.90
52471;DHT22;38382;53.160;7.026;2023-05-07T18:56:50;15.90;99.90
52471;DHT22;38382;53.160;7.026;2023-05-07T18:59:16;15.80;99.90
52471;DHT22;38382;53.160;7.026;2023-05-07T19:01:42;15.60;99.90
52471;DHT22;38382;53.160;7.026;2023-05-07T19:04:08;15.50;99.90
52471;DHT22;38382;53.160;7.026;2023-05-07T19:06:34;15.40;99.90
52471;DHT22;38382;53.160;7.026;2023-05-07T19:09:00;15.30;99.90
52471;DHT22;38382;53.160;7.026;2023-05-07T19:11:26;15.20;99.90
52471;DHT22;38382;53.160;7.026;2023-05-07T19:13:51;15.10;99.90
52471;DHT22;38382;53.160;7.026;2023-05-07T19:16:17;15.10;99.90
52471;DHT22;38382;53.160;7.026;2023-05-07T19:18:43;15.00;99.90
52471;DHT22;38382;53.160;7.026;2023-05-07T19:21:09;14.90;99.90
52471;DHT22;38382;53.160;7.026;2023-05-07T19:23:35;14.80;99.90
52471;DHT22;38382;53.160;7.026;2023-05-07T19:26:10;14.70;99.90
52471;DHT22;38382;53.160;7.026;2023-05-07T19:28:39;14.60;99.90
52471;DHT22;38382;53.160;7.026;2023-05-07T19:31:05;14.50;99.90
52471;DHT22;38382;53.160;7.026;2023-05-07T19:33:32;14.40;99.90
52471;DHT22;38382;53.160;7.026;2023-05-07T19:35:58;14.30;99.90
52471;DHT22;38382;53.160;7.026;2023-05-07T19:38:25;14.20;99.90
52471;DHT22;38382;53.160;7.026;2023-05-07T19:40:52;14.10;99.90
52471;DHT22;38382;53.160;7.026;2023-05-07T19:43:18;14.00;99.90
52471;DHT22;38382;53.160;7.026;2023-05-07T19:45:44;13.90;99.90
52471;DHT22;38382;53.160;7.026;2023-05-07T19:48:13;13.90;99.90
52471;DHT22;38382;53.160;7.026;2023-05-07T19:50:42;13.80;99.90
52471;DHT22;38382;53.160;7.026;2023-05-07T19:53:34;13.70;99.90
52471;DHT22;38382;53.160;7.026;2023-05-07T19:56:08;13.70;99.90
52471;DHT22;38382;53.160;7.026;2023-05-07T19:58:35;13.70;99.90
52471;DHT22;38382;53.160;7.026;2023-05-07T20:01:01;13.60;99.90
52471;DHT22;38382;53.160;7.026;2023-05-07T20:03:43;13.60;99.90
52471;DHT22;38382;53.160;7.026;2023-05-07T20:06:13;13.60;99.90
52471;DHT22;38382;53.160;7.026;2023-05-07T20:08:38;13.60;99.90
52471;DHT22;38382;53.160;7.026;2023-05-07T20:11:04;13.60;99.90
52471;DHT22;38382;53.160;7.026;2023-05-07T20:13:30;13.60;99.90
52471;DHT22;38382;53.160;7.026;2023-05-07T20:16:00;13.50;99.90
52471;DHT22;38382;53.160;7.026;2023-05-07T20:18:27;13.50;99.90
52471;DHT22;38382;53.160;7.026;2023-05-07T20:20:53;13.50;99.90
52471;DHT22;38382;53.160;7.026;2023-05-07T20:23:19;13.40;99.90
52471;DHT22;38382;53.160;7.026;2023-05-07T20:25:46;13.40;99.90
52471;DHT22;38382;53.160;7.026;2023-05-07T20:28:15;13.40;99.90
52471;DHT22;38382;53.160;7.026;2023-05-07T20:30:41;13.30;99.90
52471;DHT22;38382;53.160;7.026;2023-05-07T20:33:07;13.30;99.90
52471;DHT22;38382;53.160;7.026;2023-05-07T20:35:33;13.20;99.90
52471;DHT22;38382;53.160;7.026;2023-05-07T20:37:59;13.20;99.90
52471;DHT22;38382;53.160;7.026;2023-05-07T20:40:25;13.20;99.90
52471;DHT22;38382;53.160;7.026;2023-05-07T20:42:53;13.20;99.90
52471;DHT22;38382;53.160;7.026;2023-05-07T20:45:22;13.10;99.90
52471;DHT22;38382;53.160;7.026;2023-05-07T20:47:48;13.10;99.90
52471;DHT22;38382;53.160;7.026;2023-05-07T20:50:14;13.00;99.90
52471;DHT22;38382;53.160;7.026;2023-05-07T20:52:43;13.00;99.90
52471;DHT22;38382;53.160;7.026;2023-05-07T20:55:09;13.00;99.90
52471;DHT22;38382;53.160;7.026;2023-05-07T20:57:35;13.00;99.90
52471;DHT22;38382;53.160;7.026;2023-05-07T21:00:02;12.90;99.90
52471;DHT22;38382;53.160;7.026;2023-05-07T21:02:28;12.90;99.90